PWSweather.com
Personal Weather Stations
Station Observations

SkegnessGB

Lat: 53.147585, Lon: 0.345774

Elevation: 18

Station Type: Fine Offset WH3080

http://www.skegnessweather.info/

High Low Average
Temperature 42.1°F5.6°C 37.4°F3.0°C 39.5°F4.2°C
Dew Point 40.8°F4.9°C 36.9°F2.7°C 39.2°F4.0°C
Winds 5.5 mph 8.9 kmh Calm Calm 2.0 mph SE3.2 kmh SE
Wind Gusts 7.6 mph12.2 kmh -- 3.0 mph4.8 kmh
Humidity 100% 93% 99%
Pressure 30.32 in1026.8 mb 30.21 in1023.0 mb -
Precipitation 0.00 in0.0 mm - -
Hour Temp Dew Point Humidity Winds Wind Gusts Pressure Precip Precip Rate Daily Precip Total
12:00 AM 40.6°F4.8°C 40.6°F4.8°C 100% 0.7 mph N1.1 kmh N 1.7 mph2.7 kmh 30.29 in1025.7 mb 0.00 in0.0 mm 0.00 in0.0 mm 0.00 in0.0 mm
12:10 AM 40.8°F4.9°C 40.8°F4.9°C 100% Calm Calm 0.7 mph1.1 kmh 30.29 in1025.7 mb 0.00 in0.0 mm 0.00 in0.0 mm 0.00 in0.0 mm
12:20 AM 40.8°F4.9°C 40.8°F4.9°C 100% Calm Calm 0.7 mph1.1 kmh 30.29 in1025.7 mb 0.00 in0.0 mm 0.00 in0.0 mm 0.00 in0.0 mm
12:30 AM 40.8°F4.9°C 40.8°F4.9°C 100% 0.5 mph NNE0.8 kmh NNE 1.7 mph2.7 kmh 30.28 in1025.4 mb 0.00 in0.0 mm 0.00 in0.0 mm 0.00 in0.0 mm
12:40 AM 40.8°F4.9°C 40.8°F4.9°C 100% 2.0 mph NNE3.2 kmh NNE 2.5 mph4.0 kmh 30.28 in1025.4 mb 0.00 in0.0 mm 0.00 in0.0 mm 0.00 in0.0 mm
12:50 AM 40.8°F4.9°C 40.8°F4.9°C 100% 1.6 mph NE2.6 kmh NE 2.5 mph4.0 kmh 30.27 in1025.1 mb 0.00 in0.0 mm 0.00 in0.0 mm 0.00 in0.0 mm
01:00 AM 40.8°F4.9°C 40.8°F4.9°C 100% 3.0 mph N4.8 kmh N 4.2 mph6.8 kmh 30.27 in1025.1 mb 0.00 in0.0 mm 0.00 in0.0 mm 0.00 in0.0 mm
01:10 AM 40.8°F4.9°C 40.8°F4.9°C 100% 2.9 mph NW4.7 kmh NW 3.4 mph5.5 kmh 30.27 in1025.1 mb 0.00 in0.0 mm 0.00 in0.0 mm 0.00 in0.0 mm
01:20 AM 40.6°F4.8°C 40.6°F4.8°C 100% 1.6 mph NE2.6 kmh NE 3.4 mph5.5 kmh 30.27 in1025.1 mb 0.00 in0.0 mm 0.00 in0.0 mm 0.00 in0.0 mm
01:30 AM 40.6°F4.8°C 40.6°F4.8°C 100% 2.1 mph NE3.4 kmh NE 3.4 mph5.5 kmh 30.27 in1025.1 mb 0.00 in0.0 mm 0.00 in0.0 mm 0.00 in0.0 mm
01:40 AM 40.6°F4.8°C 40.6°F4.8°C 100% 2.8 mph N4.5 kmh N 3.4 mph5.5 kmh 30.27 in1025.1 mb 0.00 in0.0 mm 0.00 in0.0 mm 0.00 in0.0 mm
01:50 AM 40.6°F4.8°C 40.6°F4.8°C 100% 1.2 mph N1.9 kmh N 2.5 mph4.0 kmh 30.27 in1025.1 mb 0.00 in0.0 mm 0.00 in0.0 mm 0.00 in0.0 mm
02:00 AM 40.6°F4.8°C 40.6°F4.8°C 100% 1.2 mph N1.9 kmh N 3.4 mph5.5 kmh 30.28 in1025.4 mb 0.00 in0.0 mm 0.00 in0.0 mm 0.00 in0.0 mm
02:10 AM 40.6°F4.8°C 40.6°F4.8°C 100% 0.9 mph NNW1.4 kmh NNW 2.5 mph4.0 kmh 30.28 in1025.4 mb 0.00 in0.0 mm 0.00 in0.0 mm 0.00 in0.0 mm
02:20 AM 40.5°F4.7°C 40.5°F4.7°C 100% 0.7 mph N1.1 kmh N 2.5 mph4.0 kmh 30.28 in1025.4 mb 0.00 in0.0 mm 0.00 in0.0 mm 0.00 in0.0 mm
02:30 AM 40.5°F4.7°C 40.5°F4.7°C 100% 2.1 mph NNE3.4 kmh NNE 3.4 mph5.5 kmh 30.28 in1025.4 mb 0.00 in0.0 mm 0.00 in0.0 mm 0.00 in0.0 mm
02:40 AM 40.5°F4.7°C 40.5°F4.7°C 100% 1.6 mph N2.6 kmh N 3.4 mph5.5 kmh 30.28 in1025.4 mb 0.00 in0.0 mm 0.00 in0.0 mm 0.00 in0.0 mm
02:50 AM 40.5°F4.7°C 40.5°F4.7°C 100% 0.5 mph NNE0.8 kmh NNE 1.7 mph2.7 kmh 30.28 in1025.4 mb 0.00 in0.0 mm 0.00 in0.0 mm 0.00 in0.0 mm
03:00 AM 40.5°F4.7°C 40.5°F4.7°C 100% 0.3 mph NNE0.5 kmh NNE 1.7 mph2.7 kmh 30.29 in1025.7 mb 0.00 in0.0 mm 0.00 in0.0 mm 0.00 in0.0 mm
03:10 AM 40.5°F4.7°C 40.5°F4.7°C 100% 0.9 mph NE1.4 kmh NE 1.7 mph2.7 kmh 30.28 in1025.4 mb 0.00 in0.0 mm 0.00 in0.0 mm 0.00 in0.0 mm
03:20 AM 40.5°F4.7°C 40.5°F4.7°C 100% 0.3 mph NNE0.5 kmh NNE 0.7 mph1.1 kmh 30.28 in1025.4 mb 0.00 in0.0 mm 0.00 in0.0 mm 0.00 in0.0 mm
03:30 AM 40.5°F4.7°C 40.5°F4.7°C 100% Calm Calm 0.7 mph1.1 kmh 30.28 in1025.4 mb 0.00 in0.0 mm 0.00 in0.0 mm 0.00 in0.0 mm
03:40 AM 39.7°F4.3°C 39.7°F4.3°C 100% Calm Calm -- 30.28 in1025.4 mb 0.00 in0.0 mm 0.00 in0.0 mm 0.00 in0.0 mm
03:50 AM 38.8°F3.8°C 38.8°F3.8°C 100% Calm Calm -- 30.30 in1026.1 mb 0.00 in0.0 mm 0.00 in0.0 mm 0.00 in0.0 mm
04:00 AM 38.8°F3.8°C 38.8°F3.8°C 100% Calm Calm -- 30.29 in1025.7 mb 0.00 in0.0 mm 0.00 in0.0 mm 0.00 in0.0 mm
04:10 AM 39.0°F3.9°C 39.0°F3.9°C 100% Calm Calm 0.7 mph1.1 kmh 30.29 in1025.7 mb 0.00 in0.0 mm 0.00 in0.0 mm 0.00 in0.0 mm
04:20 AM 39.2°F4.0°C 39.2°F4.0°C 100% 0.1 mph NW0.2 kmh NW 1.7 mph2.7 kmh 30.30 in1026.1 mb 0.00 in0.0 mm 0.00 in0.0 mm 0.00 in0.0 mm
04:30 AM 39.4°F4.1°C 39.4°F4.1°C 100% Calm Calm 0.7 mph1.1 kmh 30.29 in1025.7 mb 0.00 in0.0 mm 0.00 in0.0 mm 0.00 in0.0 mm
04:40 AM 39.6°F4.2°C 39.6°F4.2°C 100% Calm Calm 0.7 mph1.1 kmh 30.30 in1026.1 mb 0.00 in0.0 mm 0.00 in0.0 mm 0.00 in0.0 mm
04:50 AM 39.6°F4.2°C 39.6°F4.2°C 100% 0.3 mph N0.5 kmh N 1.7 mph2.7 kmh 30.30 in1026.1 mb 0.00 in0.0 mm 0.00 in0.0 mm 0.00 in0.0 mm
05:00 AM 39.6°F4.2°C 39.6°F4.2°C 100% 1.3 mph NNE2.1 kmh NNE 2.5 mph4.0 kmh 30.30 in1026.1 mb 0.00 in0.0 mm 0.00 in0.0 mm 0.00 in0.0 mm
05:10 AM 39.6°F4.2°C 39.6°F4.2°C 100% 0.2 mph N0.3 kmh N 0.7 mph1.1 kmh 30.30 in1026.1 mb 0.00 in0.0 mm 0.00 in0.0 mm 0.00 in0.0 mm
05:20 AM 39.6°F4.2°C 39.6°F4.2°C 100% 0.6 mph WSW1.0 kmh WSW 2.5 mph4.0 kmh 30.30 in1026.1 mb 0.00 in0.0 mm 0.00 in0.0 mm 0.00 in0.0 mm
05:30 AM 39.2°F4.0°C 39.2°F4.0°C 100% 0.1 mph SSW0.2 kmh SSW 1.7 mph2.7 kmh 30.30 in1026.1 mb 0.00 in0.0 mm 0.00 in0.0 mm 0.00 in0.0 mm
05:40 AM 38.8°F3.8°C 38.8°F3.8°C 100% 0.2 mph WSW0.3 kmh WSW 1.7 mph2.7 kmh 30.30 in1026.1 mb 0.00 in0.0 mm 0.00 in0.0 mm 0.00 in0.0 mm
05:50 AM 38.3°F3.5°C 38.3°F3.5°C 100% 0.3 mph N0.5 kmh N 1.7 mph2.7 kmh 30.30 in1026.1 mb 0.00 in0.0 mm 0.00 in0.0 mm 0.00 in0.0 mm
06:00 AM 37.8°F3.2°C 37.8°F3.2°C 100% 0.5 mph NNE0.8 kmh NNE 2.5 mph4.0 kmh 30.31 in1026.4 mb 0.00 in0.0 mm 0.00 in0.0 mm 0.00 in0.0 mm
06:10 AM 37.8°F3.2°C 37.8°F3.2°C 100% 0.2 mph NNW0.3 kmh NNW 1.7 mph2.7 kmh 30.30 in1026.1 mb 0.00 in0.0 mm 0.00 in0.0 mm 0.00 in0.0 mm
06:20 AM 37.8°F3.2°C 37.8°F3.2°C 100% Calm Calm 0.7 mph1.1 kmh 30.30 in1026.1 mb 0.00 in0.0 mm 0.00 in0.0 mm 0.00 in0.0 mm
06:30 AM 37.6°F3.1°C 37.6°F3.1°C 100% 0.1 mph WSW0.2 kmh WSW 1.7 mph2.7 kmh 30.31 in1026.4 mb 0.00 in0.0 mm 0.00 in0.0 mm 0.00 in0.0 mm
06:40 AM 37.8°F3.2°C 37.8°F3.2°C 100% 0.6 mph S1.0 kmh S 2.5 mph4.0 kmh 30.30 in1026.1 mb 0.00 in0.0 mm 0.00 in0.0 mm 0.00 in0.0 mm
06:50 AM 37.9°F3.3°C 37.9°F3.3°C 100% 0.6 mph SSE1.0 kmh SSE 2.5 mph4.0 kmh 30.31 in1026.4 mb 0.00 in0.0 mm 0.00 in0.0 mm 0.00 in0.0 mm
07:00 AM 38.1°F3.4°C 38.1°F3.4°C 100% 0.7 mph N1.1 kmh N 1.7 mph2.7 kmh 30.31 in1026.4 mb 0.00 in0.0 mm 0.00 in0.0 mm 0.00 in0.0 mm
07:10 AM 38.3°F3.5°C 38.3°F3.5°C 100% 2.2 mph SSE3.5 kmh SSE 1.7 mph2.7 kmh 30.31 in1026.4 mb 0.00 in0.0 mm 0.00 in0.0 mm 0.00 in0.0 mm
07:20 AM 38.5°F3.6°C 38.5°F3.6°C 100% 0.4 mph W0.6 kmh W 1.7 mph2.7 kmh 30.31 in1026.4 mb 0.00 in0.0 mm 0.00 in0.0 mm 0.00 in0.0 mm
07:30 AM 38.7°F3.7°C 38.7°F3.7°C 100% 0.7 mph SSE1.1 kmh SSE 2.5 mph4.0 kmh 30.31 in1026.4 mb 0.00 in0.0 mm 0.00 in0.0 mm 0.00 in0.0 mm
07:40 AM 38.7°F3.7°C 38.7°F3.7°C 100% 0.4 mph S0.6 kmh S 1.7 mph2.7 kmh 30.31 in1026.4 mb 0.00 in0.0 mm 0.00 in0.0 mm 0.00 in0.0 mm
07:50 AM 38.7°F3.7°C 38.7°F3.7°C 100% 0.7 mph SSW1.1 kmh SSW 2.5 mph4.0 kmh 30.31 in1026.4 mb 0.00 in0.0 mm 0.00 in0.0 mm 0.00 in0.0 mm
08:00 AM 38.7°F3.7°C 38.7°F3.7°C 100% 1.4 mph SSE2.3 kmh SSE 3.4 mph5.5 kmh 30.31 in1026.4 mb 0.00 in0.0 mm 0.00 in0.0 mm 0.00 in0.0 mm
08:10 AM 38.8°F3.8°C 38.8°F3.8°C 100% 0.4 mph S0.6 kmh S 2.5 mph4.0 kmh 30.31 in1026.4 mb 0.00 in0.0 mm 0.00 in0.0 mm 0.00 in0.0 mm
08:20 AM 38.8°F3.8°C 38.8°F3.8°C 100% 0.9 mph S1.4 kmh S 2.5 mph4.0 kmh 30.31 in1026.4 mb 0.00 in0.0 mm 0.00 in0.0 mm 0.00 in0.0 mm
08:30 AM 39.0°F3.9°C 39.0°F3.9°C 100% 0.8 mph SW1.3 kmh SW 2.5 mph4.0 kmh 30.31 in1026.4 mb 0.00 in0.0 mm 0.00 in0.0 mm 0.00 in0.0 mm
08:40 AM 39.0°F3.9°C 39.0°F3.9°C 100% Calm Calm 0.7 mph1.1 kmh 30.31 in1026.4 mb 0.00 in0.0 mm 0.00 in0.0 mm 0.00 in0.0 mm
08:50 AM 39.0°F3.9°C 39.0°F3.9°C 100% 0.6 mph N1.0 kmh N 1.7 mph2.7 kmh 30.31 in1026.4 mb 0.00 in0.0 mm 0.00 in0.0 mm 0.00 in0.0 mm
09:00 AM 39.0°F3.9°C 39.0°F3.9°C 100% 0.3 mph NNE0.5 kmh NNE 1.7 mph2.7 kmh 30.31 in1026.4 mb 0.00 in0.0 mm 0.00 in0.0 mm 0.00 in0.0 mm
09:10 AM 39.0°F3.9°C 39.0°F3.9°C 100% 0.9 mph SE1.4 kmh SE 1.7 mph2.7 kmh 30.32 in1026.8 mb 0.00 in0.0 mm 0.00 in0.0 mm 0.00 in0.0 mm
09:20 AM 39.2°F4.0°C 39.2°F4.0°C 100% 1.6 mph WSW2.6 kmh WSW 3.4 mph5.5 kmh 30.32 in1026.8 mb 0.00 in0.0 mm 0.00 in0.0 mm 0.00 in0.0 mm
09:30 AM 39.4°F4.1°C 39.4°F4.1°C 100% 1.9 mph S3.1 kmh S 3.4 mph5.5 kmh 30.32 in1026.8 mb 0.00 in0.0 mm 0.00 in0.0 mm 0.00 in0.0 mm
09:40 AM 39.6°F4.2°C 39.6°F4.2°C 100% 2.1 mph SSW3.4 kmh SSW 2.5 mph4.0 kmh 30.32 in1026.8 mb 0.00 in0.0 mm 0.00 in0.0 mm 0.00 in0.0 mm
09:50 AM 39.6°F4.2°C 39.6°F4.2°C 100% 1.1 mph W1.8 kmh W 2.5 mph4.0 kmh 30.32 in1026.8 mb 0.00 in0.0 mm 0.00 in0.0 mm 0.00 in0.0 mm
10:00 AM 39.7°F4.3°C 39.7°F4.3°C 100% 1.6 mph NNW2.6 kmh NNW 2.5 mph4.0 kmh 30.32 in1026.8 mb 0.00 in0.0 mm 0.00 in0.0 mm 0.00 in0.0 mm
10:10 AM 39.9°F4.4°C 39.9°F4.4°C 100% 0.6 mph SW1.0 kmh SW 1.7 mph2.7 kmh 30.32 in1026.8 mb 0.00 in0.0 mm 0.00 in0.0 mm 0.00 in0.0 mm
10:20 AM 40.3°F4.6°C 40.3°F4.6°C 100% 0.5 mph WNW0.8 kmh WNW 1.7 mph2.7 kmh 30.32 in1026.8 mb 0.00 in0.0 mm 0.00 in0.0 mm 0.00 in0.0 mm
10:30 AM 40.6°F4.8°C 40.6°F4.8°C 100% 1.9 mph NE3.1 kmh NE 4.2 mph6.8 kmh 30.32 in1026.8 mb 0.00 in0.0 mm 0.00 in0.0 mm 0.00 in0.0 mm
10:40 AM 40.8°F4.9°C 40.8°F4.9°C 100% 1.8 mph NW2.9 kmh NW 3.4 mph5.5 kmh 30.31 in1026.4 mb 0.00 in0.0 mm 0.00 in0.0 mm 0.00 in0.0 mm
10:50 AM 40.8°F4.9°C 40.8°F4.9°C 100% 2.0 mph N3.2 kmh N 3.4 mph5.5 kmh 30.30 in1026.1 mb 0.00 in0.0 mm 0.00 in0.0 mm 0.00 in0.0 mm
11:00 AM 40.8°F4.9°C 40.3°F4.6°C 98% 1.7 mph ENE2.7 kmh ENE 3.4 mph5.5 kmh 30.31 in1026.4 mb 0.00 in0.0 mm 0.00 in0.0 mm 0.00 in0.0 mm
11:10 AM 41.2°F5.1°C 40.7°F4.8°C 98% 1.3 mph W2.1 kmh W 2.5 mph4.0 kmh 30.30 in1026.1 mb 0.00 in0.0 mm 0.00 in0.0 mm 0.00 in0.0 mm
11:20 AM 41.2°F5.1°C 40.4°F4.7°C 97% 0.9 mph N1.4 kmh N 1.7 mph2.7 kmh 30.31 in1026.4 mb 0.00 in0.0 mm 0.00 in0.0 mm 0.00 in0.0 mm
11:30 AM 41.4°F5.2°C 40.3°F4.6°C 96% 0.9 mph NNE1.4 kmh NNE 1.7 mph2.7 kmh 30.30 in1026.1 mb 0.00 in0.0 mm 0.00 in0.0 mm 0.00 in0.0 mm
11:40 AM 41.7°F5.4°C 40.4°F4.7°C 95% 1.0 mph N1.6 kmh N 2.5 mph4.0 kmh 30.30 in1026.1 mb 0.00 in0.0 mm 0.00 in0.0 mm 0.00 in0.0 mm
11:50 AM 42.1°F5.6°C 40.8°F4.9°C 95% 1.0 mph SW1.6 kmh SW 2.5 mph4.0 kmh 30.30 in1026.1 mb 0.00 in0.0 mm 0.00 in0.0 mm 0.00 in0.0 mm
12:00 PM 41.9°F5.5°C 40.3°F4.6°C 94% Calm Calm 1.7 mph2.7 kmh 30.30 in1026.1 mb 0.00 in0.0 mm 0.00 in0.0 mm 0.00 in0.0 mm
12:10 PM 41.7°F5.4°C 40.1°F4.5°C 94% 2.3 mph ENE3.7 kmh ENE 4.2 mph6.8 kmh 30.30 in1026.1 mb 0.00 in0.0 mm 0.00 in0.0 mm 0.00 in0.0 mm
12:20 PM 41.2°F5.1°C 39.3°F4.1°C 93% 2.1 mph N3.4 kmh N 3.4 mph5.5 kmh 30.30 in1026.1 mb 0.00 in0.0 mm 0.00 in0.0 mm 0.00 in0.0 mm
12:30 PM 40.8°F4.9°C 39.2°F4.0°C 94% 3.2 mph NNE5.1 kmh NNE 4.2 mph6.8 kmh 30.29 in1025.7 mb 0.00 in0.0 mm 0.00 in0.0 mm 0.00 in0.0 mm
12:40 PM 40.8°F4.9°C 39.2°F4.0°C 94% 3.0 mph N4.8 kmh N 4.2 mph6.8 kmh 30.30 in1026.1 mb 0.00 in0.0 mm 0.00 in0.0 mm 0.00 in0.0 mm
12:50 PM 40.8°F4.9°C 39.2°F4.0°C 94% 1.9 mph N3.1 kmh N 3.4 mph5.5 kmh 30.30 in1026.1 mb 0.00 in0.0 mm 0.00 in0.0 mm 0.00 in0.0 mm
01:00 PM 40.5°F4.7°C 38.9°F3.8°C 94% 2.5 mph NE4.0 kmh NE 4.2 mph6.8 kmh 30.29 in1025.7 mb 0.00 in0.0 mm 0.00 in0.0 mm 0.00 in0.0 mm
01:10 PM 40.1°F4.5°C 38.5°F3.6°C 94% 1.5 mph NE2.4 kmh NE 3.4 mph5.5 kmh 30.30 in1026.1 mb 0.00 in0.0 mm 0.00 in0.0 mm 0.00 in0.0 mm
01:20 PM 40.1°F4.5°C 38.8°F3.8°C 95% 2.6 mph NNE4.2 kmh NNE 4.2 mph6.8 kmh 30.29 in1025.7 mb 0.00 in0.0 mm 0.00 in0.0 mm 0.00 in0.0 mm
01:30 PM 40.1°F4.5°C 38.8°F3.8°C 95% 3.1 mph N5.0 kmh N 4.9 mph7.9 kmh 30.29 in1025.7 mb 0.00 in0.0 mm 0.00 in0.0 mm 0.00 in0.0 mm
01:40 PM 40.1°F4.5°C 38.8°F3.8°C 95% 3.8 mph NNE6.1 kmh NNE 4.9 mph7.9 kmh 30.29 in1025.7 mb 0.00 in0.0 mm 0.00 in0.0 mm 0.00 in0.0 mm
01:50 PM 39.9°F4.4°C 38.9°F3.8°C 96% 3.2 mph N5.1 kmh N 4.2 mph6.8 kmh 30.29 in1025.7 mb 0.00 in0.0 mm 0.00 in0.0 mm 0.00 in0.0 mm
02:00 PM 40.1°F4.5°C 39.1°F3.9°C 96% 2.8 mph NE4.5 kmh NE 4.2 mph6.8 kmh 30.28 in1025.4 mb 0.00 in0.0 mm 0.00 in0.0 mm 0.00 in0.0 mm
02:10 PM 39.9°F4.4°C 38.9°F3.8°C 96% 2.4 mph NNE3.9 kmh NNE 4.2 mph6.8 kmh 30.28 in1025.4 mb 0.00 in0.0 mm 0.00 in0.0 mm 0.00 in0.0 mm
02:20 PM 40.1°F4.5°C 39.1°F3.9°C 96% 2.2 mph N3.5 kmh N 3.4 mph5.5 kmh 30.28 in1025.4 mb 0.00 in0.0 mm 0.00 in0.0 mm 0.00 in0.0 mm
02:30 PM 40.3°F4.6°C 39.2°F4.0°C 96% 2.4 mph N3.9 kmh N 4.2 mph6.8 kmh 30.28 in1025.4 mb 0.00 in0.0 mm 0.00 in0.0 mm 0.00 in0.0 mm
02:40 PM 40.1°F4.5°C 38.8°F3.8°C 95% 2.1 mph NNW3.4 kmh NNW 3.4 mph5.5 kmh 30.28 in1025.4 mb 0.00 in0.0 mm 0.00 in0.0 mm 0.00 in0.0 mm
02:50 PM 39.9°F4.4°C 38.9°F3.8°C 96% 1.6 mph N2.6 kmh N 2.5 mph4.0 kmh 30.28 in1025.4 mb 0.00 in0.0 mm 0.00 in0.0 mm 0.00 in0.0 mm
03:00 PM 39.6°F4.2°C 38.5°F3.6°C 96% 1.3 mph NNE2.1 kmh NNE 2.5 mph4.0 kmh 30.27 in1025.1 mb 0.00 in0.0 mm 0.00 in0.0 mm 0.00 in0.0 mm
03:10 PM 39.0°F3.9°C 38.0°F3.3°C 96% 1.9 mph N3.1 kmh N 2.5 mph4.0 kmh 30.27 in1025.1 mb 0.00 in0.0 mm 0.00 in0.0 mm 0.00 in0.0 mm
03:20 PM 38.5°F3.6°C 37.4°F3.0°C 96% 1.4 mph NE2.3 kmh NE 2.5 mph4.0 kmh 30.27 in1025.1 mb 0.00 in0.0 mm 0.00 in0.0 mm 0.00 in0.0 mm
03:30 PM 38.3°F3.5°C 37.3°F2.9°C 96% 0.9 mph N1.4 kmh N 1.7 mph2.7 kmh 30.27 in1025.1 mb 0.00 in0.0 mm 0.00 in0.0 mm 0.00 in0.0 mm
03:40 PM 37.9°F3.3°C 37.2°F2.9°C 97% 0.5 mph NNE0.8 kmh NNE 1.7 mph2.7 kmh 30.27 in1025.1 mb 0.00 in0.0 mm 0.00 in0.0 mm 0.00 in0.0 mm
03:50 PM 37.8°F3.2°C 37.0°F2.8°C 97% 1.2 mph NNE1.9 kmh NNE 3.4 mph5.5 kmh 30.27 in1025.1 mb 0.00 in0.0 mm 0.00 in0.0 mm 0.00 in0.0 mm
04:00 PM 37.6°F3.1°C 37.1°F2.8°C 98% 1.0 mph NW1.6 kmh NW 2.5 mph4.0 kmh 30.27 in1025.1 mb 0.00 in0.0 mm 0.00 in0.0 mm 0.00 in0.0 mm
04:10 PM 37.4°F3.0°C 36.9°F2.7°C 98% 0.4 mph N0.6 kmh N 1.7 mph2.7 kmh 30.27 in1025.1 mb 0.00 in0.0 mm 0.00 in0.0 mm 0.00 in0.0 mm
04:20 PM 37.6°F3.1°C 37.1°F2.8°C 98% 0.3 mph N0.5 kmh N 1.7 mph2.7 kmh 30.27 in1025.1 mb 0.00 in0.0 mm 0.00 in0.0 mm 0.00 in0.0 mm
04:30 PM 37.4°F3.0°C 37.1°F2.8°C 99% 0.5 mph NNE0.8 kmh NNE 2.5 mph4.0 kmh 30.27 in1025.1 mb 0.00 in0.0 mm 0.00 in0.0 mm 0.00 in0.0 mm
04:40 PM 37.4°F3.0°C 37.1°F2.8°C 99% 0.6 mph N1.0 kmh N 2.5 mph4.0 kmh 30.27 in1025.1 mb 0.00 in0.0 mm 0.00 in0.0 mm 0.00 in0.0 mm
04:50 PM 37.6°F3.1°C 37.6°F3.1°C 100% 0.8 mph N1.3 kmh N 2.5 mph4.0 kmh 30.26 in1024.7 mb 0.00 in0.0 mm 0.00 in0.0 mm 0.00 in0.0 mm
05:00 PM 37.9°F3.3°C 37.9°F3.3°C 100% 0.7 mph NNW1.1 kmh NNW 1.7 mph2.7 kmh 30.26 in1024.7 mb 0.00 in0.0 mm 0.00 in0.0 mm 0.00 in0.0 mm
05:10 PM 38.3°F3.5°C 38.3°F3.5°C 100% 1.3 mph NW2.1 kmh NW 2.5 mph4.0 kmh 30.26 in1024.7 mb 0.00 in0.0 mm 0.00 in0.0 mm 0.00 in0.0 mm
05:20 PM 38.5°F3.6°C 38.5°F3.6°C 100% 0.3 mph NNW0.5 kmh NNW 1.7 mph2.7 kmh 30.26 in1024.7 mb 0.00 in0.0 mm 0.00 in0.0 mm 0.00 in0.0 mm
05:30 PM 38.7°F3.7°C 38.7°F3.7°C 100% 0.8 mph NW1.3 kmh NW 1.7 mph2.7 kmh 30.27 in1025.1 mb 0.00 in0.0 mm 0.00 in0.0 mm 0.00 in0.0 mm
05:40 PM 38.7°F3.7°C 38.7°F3.7°C 100% 0.7 mph NNW1.1 kmh NNW 1.7 mph2.7 kmh 30.27 in1025.1 mb 0.00 in0.0 mm 0.00 in0.0 mm 0.00 in0.0 mm
05:50 PM 38.8°F3.8°C 38.8°F3.8°C 100% 0.4 mph SE0.6 kmh SE 2.5 mph4.0 kmh 30.26 in1024.7 mb 0.00 in0.0 mm 0.00 in0.0 mm 0.00 in0.0 mm
06:00 PM 38.8°F3.8°C 38.8°F3.8°C 100% 0.4 mph N0.6 kmh N 1.7 mph2.7 kmh 30.26 in1024.7 mb 0.00 in0.0 mm 0.00 in0.0 mm 0.00 in0.0 mm
06:10 PM 39.0°F3.9°C 39.0°F3.9°C 100% 0.7 mph NNE1.1 kmh NNE 1.7 mph2.7 kmh 30.26 in1024.7 mb 0.00 in0.0 mm 0.00 in0.0 mm 0.00 in0.0 mm
06:20 PM 39.2°F4.0°C 39.2°F4.0°C 100% 1.2 mph NW1.9 kmh NW 2.5 mph4.0 kmh 30.26 in1024.7 mb 0.00 in0.0 mm 0.00 in0.0 mm 0.00 in0.0 mm
06:30 PM 39.4°F4.1°C 39.4°F4.1°C 100% 1.9 mph W3.1 kmh W 3.4 mph5.5 kmh 30.26 in1024.7 mb 0.00 in0.0 mm 0.00 in0.0 mm 0.00 in0.0 mm
06:40 PM 39.4°F4.1°C 39.4°F4.1°C 100% 1.2 mph S1.9 kmh S 2.5 mph4.0 kmh 30.25 in1024.4 mb 0.00 in0.0 mm 0.00 in0.0 mm 0.00 in0.0 mm
06:50 PM 39.6°F4.2°C 39.6°F4.2°C 100% 1.8 mph WSW2.9 kmh WSW 2.5 mph4.0 kmh 30.25 in1024.4 mb 0.00 in0.0 mm 0.00 in0.0 mm 0.00 in0.0 mm
07:00 PM 39.6°F4.2°C 39.6°F4.2°C 100% 1.1 mph SW1.8 kmh SW 2.5 mph4.0 kmh 30.25 in1024.4 mb 0.00 in0.0 mm 0.00 in0.0 mm 0.00 in0.0 mm
07:10 PM 39.7°F4.3°C 39.7°F4.3°C 100% 2.8 mph SE4.5 kmh SE 3.4 mph5.5 kmh 30.25 in1024.4 mb 0.00 in0.0 mm 0.00 in0.0 mm 0.00 in0.0 mm
07:20 PM 39.7°F4.3°C 39.7°F4.3°C 100% 2.2 mph S3.5 kmh S 4.9 mph7.9 kmh 30.25 in1024.4 mb 0.00 in0.0 mm 0.00 in0.0 mm 0.00 in0.0 mm
07:30 PM 39.7°F4.3°C 39.7°F4.3°C 100% 2.5 mph N4.0 kmh N 3.4 mph5.5 kmh 30.25 in1024.4 mb 0.00 in0.0 mm 0.00 in0.0 mm 0.00 in0.0 mm
07:40 PM 39.7°F4.3°C 39.7°F4.3°C 100% 3.8 mph SE6.1 kmh SE 6.6 mph10.6 kmh 30.25 in1024.4 mb 0.00 in0.0 mm 0.00 in0.0 mm 0.00 in0.0 mm
07:50 PM 39.7°F4.3°C 39.7°F4.3°C 100% 3.0 mph S4.8 kmh S 4.2 mph6.8 kmh 30.25 in1024.4 mb 0.00 in0.0 mm 0.00 in0.0 mm 0.00 in0.0 mm
08:00 PM 39.6°F4.2°C 39.6°F4.2°C 100% 5.5 mph SSE8.9 kmh SSE 6.6 mph10.6 kmh 30.25 in1024.4 mb 0.00 in0.0 mm 0.00 in0.0 mm 0.00 in0.0 mm
08:10 PM 39.6°F4.2°C 39.6°F4.2°C 100% 5.5 mph S8.9 kmh S 7.6 mph12.2 kmh 30.25 in1024.4 mb 0.00 in0.0 mm 0.00 in0.0 mm 0.00 in0.0 mm
08:20 PM 39.6°F4.2°C 39.3°F4.1°C 99% 3.2 mph SE5.1 kmh SE 5.9 mph9.5 kmh 30.25 in1024.4 mb 0.00 in0.0 mm 0.00 in0.0 mm 0.00 in0.0 mm
08:30 PM 39.6°F4.2°C 39.3°F4.1°C 99% 3.9 mph SSE6.3 kmh SSE 5.9 mph9.5 kmh 30.25 in1024.4 mb 0.00 in0.0 mm 0.00 in0.0 mm 0.00 in0.0 mm
08:40 PM 39.6°F4.2°C 39.3°F4.1°C 99% 2.7 mph S4.3 kmh S 5.9 mph9.5 kmh 30.25 in1024.4 mb 0.00 in0.0 mm 0.00 in0.0 mm 0.00 in0.0 mm
08:50 PM 39.6°F4.2°C 39.3°F4.1°C 99% 2.4 mph ESE3.9 kmh ESE 4.2 mph6.8 kmh 30.24 in1024.0 mb 0.00 in0.0 mm 0.00 in0.0 mm 0.00 in0.0 mm
09:00 PM 39.4°F4.1°C 39.1°F3.9°C 99% 2.8 mph S4.5 kmh S 4.9 mph7.9 kmh 30.24 in1024.0 mb 0.00 in0.0 mm 0.00 in0.0 mm 0.00 in0.0 mm
09:10 PM 39.4°F4.1°C 39.1°F3.9°C 99% 1.4 mph N2.3 kmh N 4.2 mph6.8 kmh 30.24 in1024.0 mb 0.00 in0.0 mm 0.00 in0.0 mm 0.00 in0.0 mm
09:20 PM 39.4°F4.1°C 39.1°F3.9°C 99% 2.4 mph SE3.9 kmh SE 4.9 mph7.9 kmh 30.24 in1024.0 mb 0.00 in0.0 mm 0.00 in0.0 mm 0.00 in0.0 mm
09:40 PM 39.4°F4.1°C 39.1°F3.9°C 99% 3.0 mph SE4.8 kmh SE 4.9 mph7.9 kmh 30.23 in1023.7 mb 0.00 in0.0 mm 0.00 in0.0 mm 0.00 in0.0 mm
09:50 PM 39.4°F4.1°C 39.1°F3.9°C 99% 3.1 mph SSE5.0 kmh SSE 6.6 mph10.6 kmh 30.23 in1023.7 mb 0.00 in0.0 mm 0.00 in0.0 mm 0.00 in0.0 mm
10:00 PM 39.2°F4.0°C 38.9°F3.8°C 99% 1.4 mph ESE2.3 kmh ESE 4.2 mph6.8 kmh 30.23 in1023.7 mb 0.00 in0.0 mm 0.00 in0.0 mm 0.00 in0.0 mm
10:10 PM 39.2°F4.0°C 38.9°F3.8°C 99% 2.7 mph S4.3 kmh S 4.2 mph6.8 kmh 30.22 in1023.4 mb 0.00 in0.0 mm 0.00 in0.0 mm 0.00 in0.0 mm
10:20 PM 39.2°F4.0°C 39.2°F4.0°C 100% 3.8 mph SSE6.1 kmh SSE 5.9 mph9.5 kmh 30.23 in1023.7 mb 0.00 in0.0 mm 0.00 in0.0 mm 0.00 in0.0 mm
10:30 PM 39.2°F4.0°C 39.2°F4.0°C 100% 2.2 mph W3.5 kmh W 4.9 mph7.9 kmh 30.22 in1023.4 mb 0.00 in0.0 mm 0.00 in0.0 mm 0.00 in0.0 mm
10:40 PM 39.2°F4.0°C 39.2°F4.0°C 100% 2.7 mph SW4.3 kmh SW 5.9 mph9.5 kmh 30.22 in1023.4 mb 0.00 in0.0 mm 0.00 in0.0 mm 0.00 in0.0 mm
10:50 PM 39.2°F4.0°C 39.2°F4.0°C 100% 2.5 mph W4.0 kmh W 4.9 mph7.9 kmh 30.22 in1023.4 mb 0.00 in0.0 mm 0.00 in0.0 mm 0.00 in0.0 mm
11:00 PM 39.2°F4.0°C 39.2°F4.0°C 100% 2.7 mph SE4.3 kmh SE 4.2 mph6.8 kmh 30.22 in1023.4 mb 0.00 in0.0 mm 0.00 in0.0 mm 0.00 in0.0 mm
11:10 PM 39.2°F4.0°C 39.2°F4.0°C 100% 3.9 mph SSE6.3 kmh SSE 4.2 mph6.8 kmh 30.21 in1023.0 mb 0.00 in0.0 mm 0.00 in0.0 mm 0.00 in0.0 mm
11:20 PM 39.2°F4.0°C 39.2°F4.0°C 100% 3.0 mph S4.8 kmh S 4.9 mph7.9 kmh 30.21 in1023.0 mb 0.00 in0.0 mm 0.00 in0.0 mm 0.00 in0.0 mm
11:30 PM 39.2°F4.0°C 38.9°F3.8°C 99% 5.5 mph SE8.9 kmh SE 7.6 mph12.2 kmh 30.21 in1023.0 mb 0.00 in0.0 mm 0.00 in0.0 mm 0.00 in0.0 mm
11:40 PM 39.4°F4.1°C 39.1°F3.9°C 99% 3.7 mph SSW6.0 kmh SSW 7.6 mph12.2 kmh 30.21 in1023.0 mb 0.00 in0.0 mm 0.00 in0.0 mm 0.00 in0.0 mm
11:50 PM 39.4°F4.1°C 39.1°F3.9°C 99% 2.9 mph SSE4.7 kmh SSE 5.9 mph9.5 kmh 30.21 in1023.0 mb 0.00 in0.0 mm 0.00 in0.0 mm 0.00 in0.0 mm